Time;durP1;ratioP1;P1;durP2;ratioP2;P2;SDS_P1;SDS_P2;PMS_P1;PMS_P2;Temp;Humidity;BMP_temperature;BMP_pressure;BME280_temperature;BME280_humidity;BME280_pressure;Samples;Min_cycle;Max_cycle;Signal;HPM_P1;HPM_P2
2022/12/31 00:01:43;;;;;;;14.20;6.30;;;;;;;0.74;nan;-23836.00;5012058;28;20174;-70
2022/12/31 00:04:08;;;;;;;11.50;6.60;;;;;;;0.76;nan;-23836.72;5012249;28;20225;-70
2022/12/31 00:06:34;;;;;;;12.87;6.07;;;;;;;0.46;nan;-23828.13;5011972;28;20189;-70
2022/12/31 00:09:02;;;;;;;8.73;4.87;;;;;;;0.42;nan;-23827.13;5011821;28;20255;-70
2022/12/31 00:11:29;;;;;;;15.23;7.07;;;;;;;0.68;nan;-23834.44;5011537;28;20206;-70
2022/12/31 00:13:55;;;;;;;9.20;5.53;;;;;;;0.66;nan;-23833.72;5012470;28;20214;-70
2022/12/31 00:16:25;;;;;;;12.03;6.70;;;;;;;0.46;nan;-23828.13;5011916;28;20186;-70
2022/12/31 00:18:54;;;;;;;10.83;4.70;;;;;;;0.57;nan;-23831.28;5011809;28;20180;-71
2022/12/31 00:21:20;;;;;;;9.30;5.50;;;;;;;0.96;nan;-23842.16;5012501;28;20609;-70
2022/12/31 00:23:46;;;;;;;15.07;5.57;;;;;;;1.01;nan;-23843.72;5011810;28;20194;-70
2022/12/31 00:26:14;;;;;;;10.60;5.63;;;;;;;0.55;nan;-23830.72;5011660;28;20587;-70
2022/12/31 00:28:40;;;;;;;11.87;5.87;;;;;;;0.62;nan;-23832.56;5015236;28;20187;-71
2022/12/31 00:31:32;;;;;;;8.43;5.53;;;;;;;0.82;nan;-23838.44;5015188;28;20182;-70
2022/12/31 00:33:59;;;;;;;9.07;4.40;;;;;;;0.41;nan;-23826.72;5014468;28;20242;-71
2022/12/31 00:36:29;;;;;;;7.80;4.70;;;;;;;0.58;nan;-23831.56;5014995;28;20192;-71
2022/12/31 00:38:57;;;;;;;12.77;5.47;;;;;;;0.67;nan;-23834.00;5015436;28;20169;-69
2022/12/31 00:41:23;;;;;;;10.13;5.67;;;;;;;0.74;nan;-23836.00;5015239;28;20322;-70
2022/12/31 00:43:49;;;;;;;6.70;5.13;;;;;;;0.71;nan;-23835.28;5014729;28;20563;-70
2022/12/31 00:46:15;;;;;;;8.93;4.60;;;;;;;0.88;nan;-23840.00;5015628;28;20255;-70
2022/12/31 00:48:41;;;;;;;11.33;5.00;;;;;;;0.91;nan;-23840.72;5015591;28;20529;-70
2022/12/31 00:51:10;;;;;;;7.77;4.80;;;;;;;1.26;nan;-23850.72;5014683;28;20179;-70
2022/12/31 00:53:36;;;;;;;7.83;5.30;;;;;;;0.85;nan;-23839.16;5014951;28;20283;-71
2022/12/31 00:56:07;;;;;;;11.13;5.27;;;;;;;1.01;nan;-23843.59;5014981;28;20179;-70
2022/12/31 00:58:33;;;;;;;8.37;5.00;;;;;;;1.01;nan;-23843.72;5013478;28;20266;-70
2022/12/31 01:01:08;;;;;;;7.87;4.60;;;;;;;0.86;nan;-23839.59;5014822;28;20172;-70
2022/12/31 01:03:33;;;;;;;12.13;5.03;;;;;;;1.45;nan;-23856.16;5014744;28;20242;-70
2022/12/31 01:05:59;;;;;;;11.90;6.47;;;;;;;1.44;nan;-23855.88;5014697;28;20180;-71
2022/12/31 01:08:24;;;;;;;7.57;4.80;;;;;;;0.91;nan;-23840.88;5014899;28;20172;-70
2022/12/31 01:13:33;;;;;;;9.23;4.90;;;;;;;0.88;nan;-23840.00;5014313;28;20225;-70
2022/12/31 01:16:06;;;;;;;7.43;5.60;;;;;;;1.28;nan;-23851.31;5014210;28;20167;-71
2022/12/31 01:18:31;;;;;;;9.83;4.63;;;;;;;1.11;nan;-23846.44;5014747;28;20171;-70
2022/12/31 01:21:00;;;;;;;11.97;5.97;;;;;;;0.73;nan;-23835.88;5014690;28;20187;-71
2022/12/31 01:23:25;;;;;;;10.00;4.93;;;;;;;1.02;nan;-23843.88;5014716;28;20530;-71
2022/12/31 01:25:51;;;;;;;9.97;5.83;;;;;;;0.71;nan;-23835.16;5014240;28;20175;-71
2022/12/31 01:28:16;;;;;;;9.13;5.03;;;;;;;-0.25;nan;-23807.94;5014464;28;20540;-70
2022/12/31 01:30:41;;;;;;;7.33;5.57;;;;;;;0.62;nan;-23832.72;5014415;28;20171;-70
2022/12/31 01:33:07;;;;;;;15.23;5.53;;;;;;;1.06;nan;-23845.03;5014128;28;20203;-70
2022/12/31 01:35:34;;;;;;;14.97;6.20;;;;;;;0.81;nan;-23838.00;5014385;28;20711;-71
2022/12/31 01:37:59;;;;;;;15.53;6.10;;;;;;;0.53;nan;-23830.13;5014823;28;20183;-70
2022/12/31 01:40:25;;;;;;;7.50;4.77;;;;;;;0.98;nan;-23842.88;5013342;28;20557;-70
2022/12/31 01:42:54;;;;;;;11.70;4.90;;;;;;;0.87;nan;-23839.72;5014243;28;20187;-70
2022/12/31 01:45:20;;;;;;;10.77;5.63;;;;;;;0.75;nan;-23836.44;5014088;28;20176;-70
2022/12/31 01:47:50;;;;;;;10.57;5.63;;;;;;;0.94;nan;-23841.72;5014325;28;20184;-70
2022/12/31 01:50:27;;;;;;;9.80;5.63;;;;;;;0.95;nan;-23842.00;5014262;28;20180;-70
2022/12/31 01:52:56;;;;;;;14.93;6.03;;;;;;;0.44;nan;-23827.56;5014035;28;20208;-70
2022/12/31 01:55:36;;;;;;;12.20;6.30;;;;;;;0.89;nan;-23840.28;5013971;28;20259;-71
2022/12/31 01:58:09;;;;;;;6.60;5.27;;;;;;;0.63;nan;-23833.00;5013715;28;20594;-70
2022/12/31 02:00:35;;;;;;;9.30;5.23;;;;;;;0.61;nan;-23832.44;5013558;28;20161;-70
2022/12/31 02:03:01;;;;;;;9.73;6.20;;;;;;;0.29;nan;-23823.28;5013740;28;20244;-70
2022/12/31 02:05:35;;;;;;;14.67;5.83;;;;;;;0.51;nan;-23829.56;5013683;28;20277;-70
2022/12/31 02:08:04;;;;;;;9.03;5.90;;;;;;;0.69;nan;-23834.72;5013274;28;20194;-70
2022/12/31 02:10:29;;;;;;;6.43;5.10;;;;;;;0.74;nan;-23836.16;5013712;28;20174;-70
2022/12/31 02:12:55;;;;;;;15.97;6.23;;;;;;;0.60;nan;-23832.13;5012066;28;20279;-71
2022/12/31 02:15:42;;;;;;;8.10;4.60;;;;;;;0.33;nan;-23824.41;5013491;28;20246;-70
2022/12/31 02:18:37;;;;;;;13.60;4.67;;;;;;;0.51;nan;-23829.44;5013470;28;20205;-69
2022/12/31 02:21:11;;;;;;;5.93;4.37;;;;;;;0.72;nan;-23835.56;5013774;28;20199;-69
2022/12/31 02:24:01;;;;;;;10.17;5.37;;;;;;;0.69;nan;-23834.72;5013824;28;20171;-70
2022/12/31 02:26:41;;;;;;;8.70;4.57;;;;;;;0.49;nan;-23829.00;5013151;28;20175;-69
2022/12/31 02:29:18;;;;;;;11.63;6.30;;;;;;;0.74;nan;-23836.00;5012738;28;20178;-70
2022/12/31 02:31:49;;;;;;;8.67;4.77;;;;;;;0.64;nan;-23833.16;5013469;28;20669;-69
2022/12/31 02:34:29;;;;;;;9.00;4.97;;;;;;;0.36;nan;-23825.41;5013607;28;20187;-70
2022/12/31 02:36:58;;;;;;;9.77;5.07;;;;;;;0.80;nan;-23837.72;5013141;28;20207;-70
2022/12/31 02:39:23;;;;;;;9.10;5.97;;;;;;;0.79;nan;-23837.56;5012767;28;20179;-69
2022/12/31 02:41:50;;;;;;;11.73;5.47;;;;;;;0.92;nan;-23841.00;5012765;28;20179;-70
2022/12/31 02:44:33;;;;;;;12.60;5.47;;;;;;;0.79;nan;-23837.44;5013252;28;20518;-70
2022/12/31 02:47:08;;;;;;;10.03;5.53;;;;;;;0.86;nan;-23839.44;5012561;28;20605;-69
2022/12/31 02:49:58;;;;;;;16.57;5.53;;;;;;;0.88;nan;-23840.00;5012611;28;20174;-70
2022/12/31 02:52:38;;;;;;;9.83;4.33;;;;;;;0.86;nan;-23839.44;5012865;28;20207;-70
2022/12/31 02:55:04;;;;;;;6.47;4.70;;;;;;;0.88;nan;-23840.16;5012759;28;20179;-69
2022/12/31 02:57:47;;;;;;;16.10;5.80;;;;;;;0.76;nan;-23836.72;5012640;28;20167;-69
2022/12/31 03:03:01;;;;;;;14.80;6.03;;;;;;;0.59;nan;-23831.72;5012574;28;20249;-70
2022/12/31 03:05:31;;;;;;;11.03;6.10;;;;;;;0.36;nan;-23825.28;5013035;28;20283;-70
2022/12/31 03:07:56;;;;;;;10.97;6.63;;;;;;;0.36;nan;-23825.28;5012634;28;20275;-70
2022/12/31 03:10:22;;;;;;;11.53;6.27;;;;;;;0.78;nan;-23837.16;5012248;28;20190;-70
2022/12/31 03:12:48;;;;;;;10.87;6.23;;;;;;;0.55;nan;-23830.56;5012230;28;20575;-70
2022/12/31 03:15:23;;;;;;;13.87;5.57;;;;;;;0.60;nan;-23832.13;5012213;28;20206;-70
2022/12/31 03:18:02;;;;;;;11.67;5.67;;;;;;;0.20;nan;-23820.84;5012385;28;20637;-70
2022/12/31 03:23:26;;;;;;;7.47;4.90;;;;;;;0.40;nan;-23826.41;5012387;28;20706;-70
2022/12/31 03:25:52;;;;;;;9.47;5.00;;;;;;;0.47;nan;-23828.28;5012586;28;20184;-69
2022/12/31 03:28:20;;;;;;;9.27;5.10;;;;;;;0.50;nan;-23829.13;5012229;28;20175;-69
2022/12/31 03:30:49;;;;;;;8.93;5.77;;;;;;;0.22;nan;-23821.25;5012380;28;20182;-69
2022/12/31 03:33:15;;;;;;;11.97;5.77;;;;;;;0.51;nan;-23829.56;5012159;28;20202;-70
2022/12/31 03:35:41;;;;;;;6.77;5.30;;;;;;;0.29;nan;-23823.28;5012347;28;20191;-69
2022/12/31 03:38:08;;;;;;;9.53;5.43;;;;;;;-0.04;nan;-23814.09;5012134;28;20168;-70
2022/12/31 03:40:38;;;;;;;8.33;5.37;;;;;;;0.51;nan;-23829.56;5012051;28;20230;-69
2022/12/31 03:43:03;;;;;;;5.67;4.33;;;;;;;0.29;nan;-23823.41;5012006;28;20244;-70
2022/12/31 03:45:29;;;;;;;13.07;5.90;;;;;;;0.61;nan;-23832.44;5012711;28;20607;-70
2022/12/31 03:47:54;;;;;;;6.17;4.47;;;;;;;0.32;nan;-23824.13;5012170;28;20651;-70
2022/12/31 03:50:20;;;;;;;7.57;4.23;;;;;;;0.28;nan;-23822.97;5010657;28;20663;-69
2022/12/31 03:52:46;;;;;;;6.97;4.77;;;;;;;0.33;nan;-23824.56;5012204;28;20205;-69
2022/12/31 03:55:11;;;;;;;6.37;5.00;;;;;;;0.25;nan;-23822.13;5012026;28;20175;-70
2022/12/31 03:57:37;;;;;;;7.53;5.23;;;;;;;0.42;nan;-23827.13;5012562;28;20206;-69
2022/12/31 04:00:09;;;;;;;7.63;5.43;;;;;;;0.47;nan;-23828.41;5012013;28;20168;-69
2022/12/31 04:02:35;;;;;;;11.80;7.07;;;;;;;0.48;nan;-23828.56;5013397;28;20179;-71
2022/12/31 04:05:00;;;;;;;8.40;6.03;;;;;;;0.37;nan;-23825.69;5016562;28;20236;-70
2022/12/31 04:07:26;;;;;;;9.50;5.50;;;;;;;0.33;nan;-23824.41;5015722;28;20258;-70
2022/12/31 04:09:53;;;;;;;10.37;5.57;;;;;;;0.44;nan;-23827.72;5015834;28;20184;-69
2022/12/31 04:12:18;;;;;;;9.07;5.77;;;;;;;0.34;nan;-23824.84;5016140;28;20207;-70
2022/12/31 04:14:43;;;;;;;13.47;6.03;;;;;;;0.64;nan;-23833.28;5015699;28;20175;-70
2022/12/31 04:17:09;;;;;;;14.17;5.80;;;;;;;0.60;nan;-23832.00;5015784;28;20214;-70
2022/12/31 04:19:34;;;;;;;7.87;5.47;;;;;;;0.51;nan;-23829.56;5015461;28;20180;-69
2022/12/31 04:21:59;;;;;;;13.67;6.17;;;;;;;0.74;nan;-23836.16;5015374;28;20703;-70
2022/12/31 04:24:25;;;;;;;8.57;6.30;;;;;;;0.47;nan;-23828.41;5015302;28;20271;-71
2022/12/31 04:26:50;;;;;;;12.70;6.20;;;;;;;0.36;nan;-23825.41;5015611;28;20200;-70
2022/12/31 04:29:16;;;;;;;10.03;5.87;;;;;;;-0.43;nan;-23802.94;5015625;28;20182;-70
2022/12/31 04:31:41;;;;;;;9.33;4.87;;;;;;;0.77;nan;-23837.00;5015444;28;20199;-69
2022/12/31 04:34:07;;;;;;;7.87;4.93;;;;;;;0.80;nan;-23837.72;5015199;28;20176;-69
2022/12/31 04:36:32;;;;;;;9.53;5.37;;;;;;;0.50;nan;-23829.13;5015147;28;20213;-69
2022/12/31 04:38:58;;;;;;;14.77;5.80;;;;;;;1.09;nan;-23846.03;5015586;28;20264;-69
2022/12/31 04:41:25;;;;;;;9.43;5.77;;;;;;;1.14;nan;-23847.44;5015218;28;20710;-70
2022/12/31 04:43:55;;;;;;;9.73;5.93;;;;;;;0.58;nan;-23831.56;5015034;28;20186;-70
2022/12/31 04:46:24;;;;;;;9.17;5.17;;;;;;;0.97;nan;-23842.59;5014713;28;20194;-70
2022/12/31 04:48:50;;;;;;;9.33;5.10;;;;;;;0.77;nan;-23837.00;5015905;28;20182;-69
2022/12/31 04:51:15;;;;;;;11.73;6.17;;;;;;;0.96;nan;-23842.16;5014987;28;20191;-69
2022/12/31 04:53:41;;;;;;;8.30;5.17;;;;;;;1.24;nan;-23850.16;5015174;28;20273;-69
2022/12/31 04:56:07;;;;;;;10.17;5.83;;;;;;;1.01;nan;-23843.72;5014837;28;20187;-69
2022/12/31 04:58:34;;;;;;;12.03;6.53;;;;;;;1.27;nan;-23851.03;5014797;28;20326;-69
2022/12/31 05:00:59;;;;;;;15.60;5.77;;;;;;;1.27;nan;-23851.03;5014555;28;20259;-69
2022/12/31 05:03:26;;;;;;;18.40;6.13;;;;;;;1.69;nan;-23863.03;5014687;28;20267;-69
2022/12/31 05:05:52;;;;;;;15.53;5.40;;;;;;;1.64;nan;-23861.47;5014632;28;20184;-69
2022/12/31 05:08:19;;;;;;;13.73;5.63;;;;;;;1.51;nan;-23857.88;5015271;28;20206;-69
2022/12/31 05:10:48;;;;;;;8.43;5.20;;;;;;;1.79;nan;-23865.75;5014507;28;20180;-69
2022/12/31 05:13:14;;;;;;;10.87;4.57;;;;;;;1.42;nan;-23855.16;5013943;28;20211;-69
2022/12/31 05:15:40;;;;;;;16.30;6.27;;;;;;;1.94;nan;-23869.88;5012487;28;20668;-69
2022/12/31 05:18:07;;;;;;;13.13;5.20;;;;;;;1.74;nan;-23864.47;5013810;28;20571;-70
2022/12/31 05:20:33;;;;;;;11.53;5.37;;;;;;;2.15;nan;-23875.88;5014526;28;20172;-70
2022/12/31 05:22:58;;;;;;;14.43;5.97;;;;;;;1.92;nan;-23869.31;5014443;28;20183;-70
2022/12/31 05:25:24;;;;;;;9.13;5.37;;;;;;;2.01;nan;-23871.88;5014367;28;20179;-70
2022/12/31 05:27:49;;;;;;;10.30;5.43;;;;;;;2.13;nan;-23875.31;5014451;28;20226;-70
2022/12/31 05:30:17;;;;;;;12.17;5.43;;;;;;;1.81;nan;-23866.16;5014295;28;20528;-70
2022/12/31 05:32:43;;;;;;;12.27;6.90;;;;;;;1.88;nan;-23868.31;5013895;28;20667;-70
2022/12/31 05:35:08;;;;;;;13.70;5.63;;;;;;;1.95;nan;-23870.16;5014484;28;20199;-69
2022/12/31 05:37:34;;;;;;;10.53;4.97;;;;;;;1.90;nan;-23868.75;5014449;28;20178;-69
2022/12/31 05:39:59;;;;;;;13.17;5.70;;;;;;;2.04;nan;-23872.75;5014082;28;20176;-70
2022/12/31 05:42:25;;;;;;;9.10;4.93;;;;;;;1.94;nan;-23870.03;5012592;28;20237;-71
2022/12/31 05:44:51;;;;;;;12.47;5.57;;;;;;;1.74;nan;-23864.47;5014272;28;20175;-70
2022/12/31 05:47:17;;;;;;;15.03;5.93;;;;;;;1.80;nan;-23866.03;5013934;28;20176;-71
2022/12/31 05:49:42;;;;;;;14.67;6.53;;;;;;;1.92;nan;-23869.31;5013603;28;20172;-70
2022/12/31 05:52:08;;;;;;;12.77;6.17;;;;;;;1.69;nan;-23863.03;5013359;28;20653;-70
2022/12/31 05:54:33;;;;;;;11.73;7.03;;;;;;;1.54;nan;-23858.75;5013942;28;20180;-70
2022/12/31 05:56:59;;;;;;;12.87;7.50;;;;;;;1.48;nan;-23857.03;5013983;28;20195;-70
2022/12/31 05:59:24;;;;;;;9.80;7.47;;;;;;;1.90;nan;-23868.75;5014407;28;20183;-70
2022/12/31 06:01:50;;;;;;;12.83;5.83;;;;;;;1.74;nan;-23864.47;5014028;28;20544;-70
2022/12/31 06:04:15;;;;;;;12.13;6.67;;;;;;;2.12;nan;-23875.03;5013354;28;20223;-70
2022/12/31 06:06:41;;;;;;;8.40;5.70;;;;;;;1.68;nan;-23862.59;5013496;28;20191;-70
2022/12/31 06:09:06;;;;;;;11.20;6.27;;;;;;;1.57;nan;-23859.47;5018501;28;20188;-71
2022/12/31 06:11:31;;;;;;;19.10;6.47;;;;;;;2.13;nan;-23875.47;5013550;28;20651;-70
2022/12/31 06:13:57;;;;;;;15.67;6.70;;;;;;;2.34;nan;-23881.16;5013362;28;20648;-70
2022/12/31 06:16:23;;;;;;;13.27;5.87;;;;;;;2.13;nan;-23875.47;5013224;28;20267;-70
2022/12/31 06:18:49;;;;;;;18.00;7.87;;;;;;;2.32;nan;-23880.75;5013770;28;20176;-70
2022/12/31 06:21:20;;;;;;;28.60;11.27;;;;;;;2.25;nan;-23878.59;5013229;28;20195;-70
2022/12/31 06:23:46;;;;;;;29.00;11.47;;;;;;;2.34;nan;-23881.31;5013377;28;20172;-70
2022/12/31 06:26:12;;;;;;;16.63;9.87;;;;;;;2.30;nan;-23880.16;5012692;28;20210;-70
2022/12/31 06:28:38;;;;;;;17.57;7.40;;;;;;;2.21;nan;-23877.75;5013126;28;20283;-70
2022/12/31 06:31:06;;;;;;;14.17;6.47;;;;;;;2.49;nan;-23885.59;5013608;28;20726;-70
2022/12/31 06:33:32;;;;;;;12.27;6.47;;;;;;;2.56;nan;-23887.44;5012759;28;20246;-70
2022/12/31 06:35:59;;;;;;;10.13;5.90;;;;;;;2.57;nan;-23887.88;5013299;28;20175;-70
2022/12/31 06:38:26;;;;;;;10.07;6.03;;;;;;;2.33;nan;-23881.03;5013036;28;20258;-70
2022/12/31 06:40:52;;;;;;;13.30;8.73;;;;;;;2.41;nan;-23883.31;5012707;28;20670;-70
2022/12/31 06:43:17;;;;;;;10.57;6.93;;;;;;;2.25;nan;-23878.75;5013234;28;20175;-70
2022/12/31 06:45:43;;;;;;;13.03;7.27;;;;;;;2.63;nan;-23889.59;5012504;28;20663;-70
2022/12/31 06:48:08;;;;;;;16.47;8.07;;;;;;;2.62;nan;-23889.31;5012631;28;20260;-71
2022/12/31 06:50:34;;;;;;;9.23;6.50;;;;;;;2.56;nan;-23887.44;5012836;28;20650;-70
2022/12/31 06:52:59;;;;;;;12.30;6.00;;;;;;;2.26;nan;-23879.03;5013004;28;20203;-70
2022/12/31 06:55:25;;;;;;;12.27;7.47;;;;;;;2.71;nan;-23891.59;5012308;28;20628;-71
2022/12/31 06:57:51;;;;;;;16.27;6.77;;;;;;;2.98;nan;-23899.28;5013051;28;20181;-70
2022/12/31 07:00:18;;;;;;;13.83;8.10;;;;;;;2.98;nan;-23899.28;5012625;28;20180;-70
2022/12/31 07:03:01;;;;;;;12.63;7.27;;;;;;;3.34;nan;-23909.41;5010777;28;20223;-70
2022/12/31 07:05:34;;;;;;;13.30;7.53;;;;;;;3.34;nan;-23909.41;5012573;28;20223;-70
2022/12/31 07:08:08;;;;;;;10.27;5.47;;;;;;;3.47;nan;-23913.25;5012272;28;20168;-71
2022/12/31 07:10:36;;;;;;;14.03;7.90;;;;;;;3.52;nan;-23914.69;5012695;28;20187;-70
2022/12/31 07:13:27;;;;;;;11.43;7.10;;;;;;;3.21;nan;-23905.84;5012074;28;20628;-70
2022/12/31 07:16:17;;;;;;;15.90;7.50;;;;;;;3.78;nan;-23921.81;5012092;28;20595;-70
2022/12/31 07:18:53;;;;;;;14.30;7.27;;;;;;;3.85;nan;-23923.81;5012104;28;20576;-70
2022/12/31 07:21:30;;;;;;;17.67;8.57;;;;;;;3.80;nan;-23922.38;5012516;28;20262;-70
2022/12/31 07:23:56;;;;;;;13.77;8.07;;;;;;;3.71;nan;-23919.97;5012517;28;20175;-70
2022/12/31 07:26:49;;;;;;;15.47;7.63;;;;;;;3.59;nan;-23916.53;5012418;28;20191;-70
2022/12/31 07:29:35;;;;;;;12.17;6.77;;;;;;;4.02;nan;-23928.66;5012159;28;20251;-70
2022/12/31 07:32:22;;;;;;;13.03;6.70;;;;;;;3.87;nan;-23924.38;5012361;28;20195;-70
2022/12/31 07:34:54;;;;;;;14.30;7.00;;;;;;;4.06;nan;-23929.78;5012593;28;20592;-71
2022/12/31 07:37:47;;;;;;;11.67;5.83;;;;;;;4.06;nan;-23929.78;5011042;28;20164;-70
2022/12/31 07:40:35;;;;;;;11.83;6.83;;;;;;;3.63;nan;-23917.69;5012110;28;20194;-71
2022/12/31 07:43:22;;;;;;;15.63;7.20;;;;;;;4.07;nan;-23930.06;5012046;28;20200;-70
2022/12/31 07:46:08;;;;;;;11.63;6.10;;;;;;;4.26;nan;-23935.50;5013916;28;20187;-70
2022/12/31 07:48:33;;;;;;;12.83;7.57;;;;;;;4.00;nan;-23928.09;5006874;28;20274;-70
2022/12/31 07:50:59;;;;;;;17.30;8.03;;;;;;;4.36;nan;-23938.34;5017239;28;20691;-70
2022/12/31 07:53:25;;;;;;;13.27;7.80;;;;;;;4.31;nan;-23936.78;5017787;28;20207;-70
2022/12/31 07:55:58;;;;;;;10.57;7.03;;;;;;;3.99;nan;-23927.81;5014331;28;20199;-70
2022/12/31 07:59:03;;;;;;;13.33;5.87;;;;;;;4.38;nan;-23938.91;5017846;28;20213;-71
2022/12/31 08:01:55;;;;;;;10.40;6.67;;;;;;;3.94;nan;-23926.38;5005175;28;20195;-71
2022/12/31 08:04:28;;;;;;;10.97;6.60;;;;;;;4.47;nan;-23941.31;5014038;28;20309;-71
2022/12/31 08:07:22;;;;;;;11.80;7.10;;;;;;;4.75;nan;-23949.31;4995022;28;20238;-70
2022/12/31 08:10:09;;;;;;;12.93;7.30;;;;;;;4.89;nan;-23953.28;5011283;28;20567;-70
2022/12/31 08:12:36;;;;;;;11.63;7.27;;;;;;;5.06;nan;-23957.97;5011437;28;20204;-71
2022/12/31 08:15:10;;;;;;;13.53;7.83;;;;;;;4.80;nan;-23950.56;5014076;28;20186;-70
2022/12/31 08:17:36;;;;;;;12.93;7.47;;;;;;;4.89;nan;-23953.13;5012037;28;20176;-70
2022/12/31 08:20:02;;;;;;;14.00;8.23;;;;;;;5.48;nan;-23969.63;5011969;28;20222;-70
2022/12/31 08:22:45;;;;;;;12.37;7.23;;;;;;;5.43;nan;-23968.22;5011529;28;20647;-70
2022/12/31 08:25:24;;;;;;;12.50;6.67;;;;;;;5.47;nan;-23969.50;5011416;28;20187;-69
2022/12/31 08:28:05;;;;;;;14.03;7.93;;;;;;;5.66;nan;-23974.75;5012142;28;20238;-69
2022/12/31 08:30:56;;;;;;;13.23;6.03;;;;;;;5.80;nan;-23978.72;5013867;28;20768;-70
2022/12/31 08:33:38;;;;;;;12.40;5.90;;;;;;;5.70;nan;-23975.88;5014947;28;20227;-70
2022/12/31 08:36:21;;;;;;;13.50;6.10;;;;;;;6.37;nan;-23994.66;5015990;28;20188;-70
2022/12/31 08:39:09;;;;;;;10.50;6.43;;;;;;;6.15;nan;-23988.69;5012458;28;20183;-70
2022/12/31 08:41:43;;;;;;;13.17;7.27;;;;;;;6.17;nan;-23989.25;5015785;28;20290;-71
2022/12/31 08:44:34;;;;;;;11.73;6.63;;;;;;;6.12;nan;-23987.81;5013226;28;20190;-71
2022/12/31 08:47:28;;;;;;;13.70;7.17;;;;;;;6.24;nan;-23991.09;5015982;28;20172;-70
2022/12/31 08:49:54;;;;;;;10.07;6.20;;;;;;;6.53;nan;-23999.19;5016458;28;20192;-70
2022/12/31 08:52:24;;;;;;;13.40;7.03;;;;;;;6.24;nan;-23991.09;5021444;28;20222;-70
2022/12/31 08:54:50;;;;;;;15.47;7.10;;;;;;;6.42;nan;-23996.06;5012991;28;20180;-69
2022/12/31 08:57:42;;;;;;;13.33;7.03;;;;;;;6.49;nan;-23998.06;5021035;28;20245;-70
2022/12/31 09:00:15;;;;;;;11.17;6.27;;;;;;;7.07;nan;-24014.50;5013520;28;20184;-71
2022/12/31 09:03:06;;;;;;;14.10;7.17;;;;;;;6.72;nan;-24004.44;5021294;28;20176;-71
2022/12/31 09:05:38;;;;;;;12.67;7.03;;;;;;;7.44;nan;-24024.88;5018794;28;20196;-71
2022/12/31 09:08:21;;;;;;;11.90;6.40;;;;;;;7.23;nan;-24018.75;5015800;28;20179;-71
2022/12/31 09:11:05;;;;;;;16.43;8.53;;;;;;;7.66;nan;-24030.94;5010435;28;20180;-72
2022/12/31 09:14:10;;;;;;;19.50;8.67;;;;;;;7.41;nan;-24024.00;5018435;28;20246;-71
2022/12/31 09:17:12;;;;;;;16.40;7.73;;;;;;;8.18;nan;-24045.53;4999086;28;20274;-71
2022/12/31 09:19:38;;;;;;;15.10;8.20;;;;;;;8.19;nan;-24045.69;5017616;28;20184;-70
2022/12/31 09:22:03;;;;;;;15.20;7.73;;;;;;;8.03;nan;-24041.28;5019560;28;20253;-70
2022/12/31 09:24:29;;;;;;;14.90;7.97;;;;;;;8.52;nan;-24055.03;5014470;28;20191;-71
2022/12/31 09:27:08;;;;;;;16.53;8.23;;;;;;;8.64;nan;-24058.44;5020772;28;20191;-71
2022/12/31 09:29:50;;;;;;;21.67;9.90;;;;;;;8.50;nan;-24054.47;5017888;28;20666;-71
2022/12/31 09:32:40;;;;;;;22.77;8.00;;;;;;;8.39;nan;-24051.34;5022708;28;20195;-71
2022/12/31 09:35:32;;;;;;;22.13;9.80;;;;;;;8.89;nan;-24065.34;5012227;28;20187;-71
2022/12/31 09:38:09;;;;;;;18.30;8.80;;;;;;;8.64;nan;-24058.28;5015892;28;20187;-71
2022/12/31 09:40:57;;;;;;;19.90;9.07;;;;;;;8.77;nan;-24061.97;5016059;28;20278;-71
2022/12/31 09:43:37;;;;;;;17.60;9.43;;;;;;;9.10;nan;-24071.16;5009914;28;20191;-71
2022/12/31 09:46:11;;;;;;;20.20;9.30;;;;;;;9.35;nan;-24078.22;5014008;28;20262;-71
2022/12/31 09:48:48;;;;;;;14.97;8.10;;;;;;;9.67;nan;-24087.28;5013884;28;20314;-70
2022/12/31 09:51:43;;;;;;;15.95;9.02;;;;;;;9.90;nan;-24093.63;5013757;28;20265;-71
2022/12/31 09:54:08;;;;;;;14.57;8.25;;;;;;;10.08;nan;-24098.56;5014013;28;20198;-71
2022/12/31 09:56:38;;;;;;;18.50;8.07;;;;;;;9.88;nan;-24092.91;5017736;28;20202;-71
2022/12/31 09:59:42;;;;;;;18.95;10.77;;;;;;;10.44;nan;-24108.75;5016308;28;20263;-70
2022/12/31 10:02:31;;;;;;;23.88;11.40;;;;;;;10.57;nan;-24112.41;4997419;28;20656;-70
2022/12/31 10:05:39;;;;;;;23.83;11.32;;;;;;;10.33;nan;-24105.63;5013847;28;20223;-70
2022/12/31 10:08:22;;;;;;;25.60;12.40;;;;;;;10.31;nan;-24105.06;5012779;28;20215;-70
2022/12/31 10:11:18;;;;;;;27.80;12.38;;;;;;;10.10;nan;-24099.13;5013563;28;20176;-70
2022/12/31 10:13:46;;;;;;;24.70;11.25;;;;;;;10.53;nan;-24111.28;5012925;28;20195;-70
2022/12/31 10:16:54;;;;;;;25.70;12.60;;;;;;;10.68;nan;-24115.22;5013798;28;20645;-70
2022/12/31 10:19:57;;;;;;;17.55;10.20;;;;;;;10.76;nan;-24117.47;5012417;28;20183;-70
2022/12/31 10:22:53;;;;;;;23.33;11.48;;;;;;;10.66;nan;-24114.81;5012978;28;20180;-70
2022/12/31 10:25:27;;;;;;;19.83;9.98;;;;;;;10.94;nan;-24122.69;5013271;28;20175;-70
2022/12/31 10:28:13;;;;;;;20.20;10.38;;;;;;;11.16;nan;-24128.63;5013220;28;20171;-71
2022/12/31 10:30:47;;;;;;;24.25;10.70;;;;;;;11.16;nan;-24128.75;5015116;28;20262;-71
2022/12/31 10:33:36;;;;;;;25.58;11.02;;;;;;;10.99;nan;-24123.97;5012975;28;20222;-70
2022/12/31 10:36:18;;;;;;;20.30;11.93;;;;;;;10.93;nan;-24122.28;5012794;28;20219;-71
2022/12/31 10:39:06;;;;;;;19.23;9.27;;;;;;;11.24;nan;-24131.03;5013097;28;20168;-71
2022/12/31 10:42:00;;;;;;;25.83;12.55;;;;;;;11.51;nan;-24138.50;5013020;28;20747;-69
2022/12/31 10:44:45;;;;;;;25.52;12.35;;;;;;;11.54;nan;-24139.34;5012925;28;20297;-70
2022/12/31 10:47:39;;;;;;;27.85;13.13;;;;;;;11.43;nan;-24136.38;5012457;28;20161;-69
2022/12/31 10:50:14;;;;;;;26.27;14.10;;;;;;;11.70;nan;-24143.69;5012663;28;20229;-70
2022/12/31 10:53:04;;;;;;;28.15;12.45;;;;;;;11.65;nan;-24142.28;5012666;28;20196;-70
2022/12/31 10:55:53;;;;;;;30.13;13.60;;;;;;;11.68;nan;-24143.13;5012515;28;20240;-71
2022/12/31 10:58:40;;;;;;;29.17;13.10;;;;;;;11.60;nan;-24141.03;5011315;28;20628;-70
2022/12/31 11:01:10;;;;;;;20.70;10.43;;;;;;;11.87;nan;-24148.50;5012591;28;20171;-70
2022/12/31 11:03:53;;;;;;;25.58;12.60;;;;;;;11.93;nan;-24150.31;5012293;28;20311;-70
2022/12/31 11:06:49;;;;;;;24.30;11.85;;;;;;;12.10;nan;-24154.81;5012521;28;20203;-71
2022/12/31 11:09:33;;;;;;;27.88;13.35;;;;;;;12.18;nan;-24157.22;5012538;28;20160;-70
2022/12/31 11:12:20;;;;;;;28.42;13.23;;;;;;;12.30;nan;-24160.59;5011650;28;20282;-70
2022/12/31 11:15:24;;;;;;;22.50;11.73;;;;;;;12.52;nan;-24166.66;5012740;28;20178;-70
2022/12/31 11:18:22;;;;;;;32.47;12.32;;;;;;;12.67;nan;-24170.88;5016103;28;20230;-71
2022/12/31 11:20:59;;;;;;;27.48;12.70;;;;;;;12.53;nan;-24166.94;5012181;28;20164;-71
2022/12/31 11:23:43;;;;;;;31.65;14.85;;;;;;;12.70;nan;-24171.56;5012922;28;20267;-71
2022/12/31 11:26:11;;;;;;;32.35;14.73;;;;;;;12.88;nan;-24176.50;5012278;28;20179;-71
2022/12/31 11:28:48;;;;;;;32.80;14.30;;;;;;;12.82;nan;-24174.94;5012144;28;20164;-71
2022/12/31 11:31:31;;;;;;;30.65;14.45;;;;;;;12.74;nan;-24172.69;5012153;28;20656;-71
2022/12/31 11:34:24;;;;;;;29.52;14.38;;;;;;;13.03;nan;-24180.84;5012356;28;20246;-70
2022/12/31 11:37:17;;;;;;;34.13;14.23;;;;;;;12.94;nan;-24178.31;5012118;28;20646;-70
2022/12/31 11:40:01;;;;;;;33.00;14.13;;;;;;;12.77;nan;-24173.69;5012149;28;20223;-70
2022/12/31 11:42:43;;;;;;;32.85;14.40;;;;;;;13.12;nan;-24183.25;5011896;28;20176;-70
2022/12/31 11:45:37;;;;;;;35.70;14.65;;;;;;;13.11;nan;-24183.09;5012440;28;20208;-70
2022/12/31 11:48:11;;;;;;;28.95;12.90;;;;;;;12.63;nan;-24169.75;5019738;28;20195;-71
2022/12/31 11:50:48;;;;;;;28.65;12.80;;;;;;;13.01;nan;-24180.28;5012132;28;20202;-71
2022/12/31 11:53:35;;;;;;;25.65;13.30;;;;;;;13.05;nan;-24181.28;5011963;28;20693;-71
2022/12/31 11:56:09;;;;;;;20.85;11.35;;;;;;;13.45;nan;-24192.38;5012220;28;20211;-72
2022/12/31 11:58:34;;;;;;;22.73;11.52;;;;;;;13.24;nan;-24186.63;5011699;28;20180;-71
2022/12/31 12:01:23;;;;;;;23.98;11.40;;;;;;;13.07;nan;-24181.97;5011796;28;20544;-71
2022/12/31 12:03:48;;;;;;;23.95;12.23;;;;;;;13.18;nan;-24184.94;5011827;28;20220;-71
2022/12/31 12:06:17;;;;;;;19.88;10.43;;;;;;;13.13;nan;-24183.66;5012056;28;20191;-71
2022/12/31 12:08:43;;;;;;;24.95;11.93;;;;;;;12.80;nan;-24174.53;5011510;28;20234;-71
2022/12/31 12:11:25;;;;;;;18.13;9.88;;;;;;;12.92;nan;-24177.75;5012127;28;20172;-71
2022/12/31 12:13:50;;;;;;;19.92;10.15;;;;;;;13.47;nan;-24192.94;5011922;28;20214;-71
2022/12/31 12:16:19;;;;;;;16.45;10.15;;;;;;;13.26;nan;-24187.19;5012118;28;20165;-71
2022/12/31 12:18:48;;;;;;;19.50;10.15;;;;;;;13.01;nan;-24180.16;5011420;28;20250;-70
2022/12/31 12:21:17;;;;;;;21.33;10.75;;;;;;;13.02;nan;-24180.56;5011959;28;20180;-71